createdAt,value
2018-11-07T00:01:18.757Z,13.47
2018-11-07T00:03:30.983Z,18.57
2018-11-07T00:05:43.198Z,13.60
2018-11-07T00:07:55.517Z,13.20
2018-11-07T00:10:08.036Z,11.53
2018-11-07T00:12:20.255Z,12.93
2018-11-07T00:14:32.547Z,12.47
2018-11-07T00:16:44.766Z,13.23
2018-11-07T00:18:56.966Z,15.93
2018-11-07T00:21:09.187Z,14.40
2018-11-07T00:23:21.401Z,15.43
2018-11-07T00:25:33.640Z,14.97
2018-11-07T00:27:45.811Z,13.97
2018-11-07T00:29:58.058Z,15.97
2018-11-07T00:32:10.265Z,14.53
2018-11-07T00:34:22.491Z,15.13
2018-11-07T00:36:34.702Z,15.50
2018-11-07T00:38:46.933Z,12.77
2018-11-07T00:40:59.159Z,15.27
2018-11-07T00:43:11.389Z,13.63
2018-11-07T00:45:23.632Z,13.03
2018-11-07T00:47:35.935Z,12.43
2018-11-07T00:49:48.136Z,16.60
2018-11-07T00:52:00.370Z,15.63
2018-11-07T00:54:12.624Z,13.73
2018-11-07T00:56:24.873Z,13.43
2018-11-07T00:58:37.097Z,13.83
2018-11-07T01:00:49.316Z,15.73
2018-11-07T01:03:01.526Z,13.93
2018-11-07T01:05:13.990Z,14.30
2018-11-07T01:07:26.194Z,13.00
2018-11-07T01:09:38.587Z,12.67
2018-11-07T01:11:50.711Z,14.20
2018-11-07T01:14:02.920Z,15.03
2018-11-07T01:16:15.154Z,12.73
2018-11-07T01:18:27.426Z,18.20
2018-11-07T01:20:39.733Z,13.47
2018-11-07T01:22:51.891Z,15.27
2018-11-07T01:25:05.569Z,11.27
2018-11-07T01:27:17.757Z,13.63
2018-11-07T01:29:29.930Z,14.23
2018-11-07T01:31:42.255Z,15.13
2018-11-07T01:33:54.454Z,12.87
2018-11-07T01:36:06.705Z,13.20
2018-11-07T01:38:18.892Z,11.07
2018-11-07T01:40:31.091Z,11.70
2018-11-07T01:42:43.716Z,10.77
2018-11-07T01:44:55.969Z,11.33
2018-11-07T01:47:08.230Z,10.40
2018-11-07T01:49:20.447Z,10.40
2018-11-07T01:51:32.683Z,10.57
2018-11-07T01:53:44.877Z,11.90
2018-11-07T01:55:57.088Z,13.13
2018-11-07T01:58:09.367Z,12.30
2018-11-07T02:00:21.619Z,8.00
2018-11-07T02:02:33.942Z,9.30
2018-11-07T02:04:46.126Z,8.33
2018-11-07T02:06:58.423Z,12.37
2018-11-07T02:09:10.806Z,8.07
2018-11-07T02:11:22.999Z,12.37
2018-11-07T02:13:41.343Z,10.80
2018-11-07T02:15:54.423Z,10.97
2018-11-07T02:18:06.897Z,8.43
2018-11-07T02:20:19.090Z,10.33
2018-11-07T02:22:31.280Z,10.57
2018-11-07T02:24:43.511Z,9.40
2018-11-07T02:26:55.830Z,9.07
2018-11-07T02:29:12.689Z,10.63
2018-11-07T02:31:24.922Z,8.80
2018-11-07T02:33:37.158Z,10.43
2018-11-07T02:35:49.393Z,11.57
2018-11-07T02:38:01.608Z,9.37
2018-11-07T02:40:13.803Z,8.97
2018-11-07T02:42:26.081Z,10.67
2018-11-07T02:44:38.266Z,9.80
2018-11-07T02:46:50.442Z,10.77
2018-11-07T02:49:02.948Z,13.73
2018-11-07T02:51:15.155Z,10.77
2018-11-07T02:53:27.341Z,10.50
2018-11-07T02:55:39.532Z,11.20
2018-11-07T02:57:51.712Z,9.53
2018-11-07T03:00:05.824Z,11.00
2018-11-07T03:02:18.035Z,7.83
2018-11-07T03:04:30.217Z,7.80
2018-11-07T03:06:42.417Z,7.57
2018-11-07T03:08:54.698Z,7.97
2018-11-07T03:11:06.890Z,7.30
2018-11-07T03:13:19.083Z,7.77
2018-11-07T03:15:31.301Z,7.00
2018-11-07T03:17:43.500Z,8.20
2018-11-07T03:19:55.701Z,6.13
2018-11-07T03:22:08.001Z,7.00
2018-11-07T03:24:20.252Z,7.97
2018-11-07T03:26:32.470Z,9.03
2018-11-07T03:28:44.678Z,8.93
2018-11-07T03:30:56.983Z,10.27
2018-11-07T03:33:09.167Z,9.17
2018-11-07T03:35:27.899Z,9.03
2018-11-07T03:37:40.104Z,11.57
2018-11-07T03:39:52.354Z,10.20
2018-11-07T03:42:04.646Z,9.97
2018-11-07T03:44:16.823Z,10.60
2018-11-07T03:46:29.050Z,11.57
2018-11-07T03:48:41.243Z,10.37
2018-11-07T03:50:53.535Z,8.87
2018-11-07T03:53:05.952Z,6.23
2018-11-07T03:55:18.205Z,7.83
2018-11-07T03:57:30.496Z,6.50
2018-11-07T03:59:42.690Z,8.60
2018-11-07T04:01:54.881Z,8.20
2018-11-07T04:04:07.107Z,7.37
2018-11-07T04:06:19.301Z,5.87
2018-11-07T04:08:31.538Z,5.43
2018-11-07T04:10:43.726Z,6.53
2018-11-07T04:12:55.932Z,7.13
2018-11-07T04:15:08.736Z,7.67
2018-11-07T04:17:20.959Z,6.67
2018-11-07T04:19:33.156Z,7.73
2018-11-07T04:21:45.351Z,7.10
2018-11-07T04:24:02.260Z,6.07
2018-11-07T04:26:14.443Z,5.97
2018-11-07T04:28:26.665Z,9.40
2018-11-07T04:30:38.949Z,7.27
2018-11-07T04:32:51.123Z,6.80
2018-11-07T04:35:03.382Z,6.00
2018-11-07T04:37:15.611Z,5.93
2018-11-07T04:39:27.811Z,6.93
2018-11-07T04:41:39.981Z,6.03
2018-11-07T04:43:52.195Z,5.50
2018-11-07T04:46:04.447Z,7.03
2018-11-07T04:48:16.705Z,6.93
2018-11-07T04:50:28.938Z,7.87
2018-11-07T04:52:41.138Z,7.73
2018-11-07T04:54:53.388Z,7.30
2018-11-07T04:57:06.051Z,5.97
2018-11-07T04:59:18.259Z,6.43
2018-11-07T05:01:30.539Z,8.23
2018-11-07T05:03:42.735Z,5.57
2018-11-07T05:05:54.931Z,5.00
2018-11-07T05:08:07.105Z,6.60
2018-11-07T05:10:19.338Z,5.40
2018-11-07T05:12:31.532Z,6.43
2018-11-07T05:14:43.768Z,7.57
2018-11-07T05:16:56.044Z,5.83
2018-11-07T05:19:08.234Z,5.67
2018-11-07T05:21:20.422Z,6.17
2018-11-07T05:23:32.628Z,8.17
2018-11-07T05:25:44.846Z,8.60
2018-11-07T05:27:57.046Z,5.37
2018-11-07T05:30:10.038Z,5.97
2018-11-07T05:32:22.269Z,5.50
2018-11-07T05:34:34.471Z,6.37
2018-11-07T05:36:47.640Z,6.50
2018-11-07T05:38:59.918Z,6.87
2018-11-07T05:41:12.212Z,7.17
2018-11-07T05:43:24.370Z,5.67
2018-11-07T05:45:36.648Z,5.97
2018-11-07T05:47:48.928Z,6.30
2018-11-07T05:50:01.132Z,5.13
2018-11-07T05:52:13.376Z,6.13
2018-11-07T05:54:25.622Z,7.47
2018-11-07T05:56:37.807Z,7.67
2018-11-07T05:58:50.159Z,5.13
2018-11-07T06:01:02.406Z,5.77
2018-11-07T06:03:14.647Z,5.90
2018-11-07T06:05:26.858Z,6.93
2018-11-07T06:07:39.708Z,8.20
2018-11-07T06:09:51.954Z,15.87
2018-11-07T06:12:04.357Z,9.93
2018-11-07T06:14:16.589Z,6.37
2018-11-07T06:16:28.821Z,7.47
2018-11-07T06:18:41.059Z,5.73
2018-11-07T06:20:53.291Z,5.80
2018-11-07T06:23:06.423Z,5.37
2018-11-07T06:25:18.654Z,6.50
2018-11-07T06:27:31.183Z,6.83
2018-11-07T06:29:43.471Z,5.47
2018-11-07T06:31:55.712Z,7.80
2018-11-07T06:34:07.958Z,5.80
2018-11-07T06:36:20.137Z,7.00
2018-11-07T06:38:32.349Z,7.23
2018-11-07T06:40:44.577Z,6.37
2018-11-07T06:42:56.774Z,7.87
2018-11-07T06:45:09.860Z,7.77
2018-11-07T06:47:22.173Z,7.63
2018-11-07T06:49:34.411Z,7.43
2018-11-07T06:51:46.676Z,5.73
2018-11-07T06:53:58.903Z,7.17
2018-11-07T06:56:11.298Z,9.43
2018-11-07T06:58:23.470Z,7.23
2018-11-07T07:00:35.747Z,9.87
2018-11-07T07:02:48.051Z,10.67
2018-11-07T07:05:00.258Z,7.80
2018-11-07T07:07:12.486Z,7.70
2018-11-07T07:09:24.765Z,7.77
2018-11-07T07:11:36.990Z,8.00
2018-11-07T07:13:49.273Z,7.40
2018-11-07T07:16:01.636Z,8.50
2018-11-07T07:18:13.947Z,6.67
2018-11-07T07:20:26.120Z,7.33
2018-11-07T07:22:38.708Z,9.07
2018-11-07T07:24:50.922Z,9.87
2018-11-07T07:27:03.131Z,7.03
2018-11-07T07:29:15.459Z,7.43
2018-11-07T07:31:27.826Z,10.23
2018-11-07T07:33:40.157Z,9.53
2018-11-07T07:35:52.360Z,8.83
2018-11-07T07:38:05.128Z,8.90
2018-11-07T07:40:17.374Z,6.07
2018-11-07T07:42:29.707Z,8.90
2018-11-07T07:44:41.939Z,6.03
2018-11-07T07:46:54.188Z,10.83
2018-11-07T07:49:06.462Z,8.33
2018-11-07T07:51:18.672Z,9.17
2018-11-07T07:53:30.927Z,6.20
2018-11-07T07:55:43.179Z,7.47
2018-11-07T07:57:55.405Z,5.63
2018-11-07T08:00:19.189Z,5.17
2018-11-07T08:02:31.405Z,4.47
2018-11-07T08:04:43.683Z,6.80
2018-11-07T08:06:55.959Z,5.90
2018-11-07T08:09:10.252Z,7.30
2018-11-07T08:11:22.494Z,9.47
2018-11-07T08:13:34.795Z,5.63
2018-11-07T08:15:46.891Z,6.83
2018-11-07T08:17:59.115Z,7.40
2018-11-07T08:20:12.369Z,10.97
2018-11-07T08:22:24.646Z,9.77
2018-11-07T08:24:36.852Z,10.37
2018-11-07T08:26:49.094Z,15.03
2018-11-07T08:29:01.412Z,10.70
2018-11-07T08:31:13.610Z,11.33
2018-11-07T08:33:25.886Z,13.60
2018-11-07T08:35:38.119Z,12.97
2018-11-07T08:37:50.342Z,13.87
2018-11-07T08:40:02.855Z,14.87
2018-11-07T08:42:15.908Z,13.60
2018-11-07T08:44:28.144Z,14.13
2018-11-07T08:46:40.410Z,11.00
2018-11-07T08:48:52.675Z,13.20
2018-11-07T08:51:04.982Z,12.00
2018-11-07T08:53:17.210Z,10.57
2018-11-07T08:55:29.514Z,10.67
2018-11-07T08:57:41.821Z,13.23
2018-11-07T08:59:54.033Z,11.13
2018-11-07T09:02:06.390Z,12.20
2018-11-07T09:04:18.691Z,11.53
2018-11-07T09:06:30.988Z,12.27
2018-11-07T09:08:44.125Z,10.03
2018-11-07T09:10:56.365Z,13.67
2018-11-07T09:13:08.625Z,15.17
2018-11-07T09:15:21.933Z,14.83
2018-11-07T09:17:34.271Z,13.43
2018-11-07T09:19:46.563Z,10.83
2018-11-07T09:21:58.864Z,9.30
2018-11-07T09:24:11.142Z,12.90
2018-11-07T09:26:23.386Z,14.70
2018-11-07T09:28:35.619Z,12.73
2018-11-07T09:30:47.872Z,11.47
2018-11-07T09:33:00.152Z,9.87
2018-11-07T09:35:12.844Z,10.60
2018-11-07T09:37:25.092Z,13.10
2018-11-07T09:39:37.433Z,10.47
2018-11-07T09:41:49.718Z,10.80
2018-11-07T09:44:01.976Z,13.90
2018-11-07T09:46:14.214Z,11.20
2018-11-07T09:48:26.551Z,12.97
2018-11-07T09:50:38.821Z,12.60
2018-11-07T09:52:51.088Z,12.87
2018-11-07T09:55:03.925Z,13.00
2018-11-07T09:57:16.143Z,8.57
2018-11-07T09:59:28.441Z,10.53
2018-11-07T10:01:40.647Z,8.83
2018-11-07T10:03:52.907Z,10.57
2018-11-07T10:06:05.217Z,10.53
2018-11-07T10:08:17.449Z,11.77
2018-11-07T10:10:29.676Z,10.77
2018-11-07T10:12:42.258Z,8.57
2018-11-07T10:14:54.514Z,7.80
2018-11-07T10:17:06.731Z,8.73
2018-11-07T10:19:18.988Z,8.57
2018-11-07T10:21:31.237Z,10.37
2018-11-07T10:23:43.499Z,9.17
2018-11-07T10:25:55.794Z,8.37
2018-11-07T10:28:08.545Z,7.93
2018-11-07T10:30:21.021Z,6.77
2018-11-07T10:32:32.993Z,6.23
2018-11-07T10:34:49.083Z,9.63
2018-11-07T10:37:01.306Z,6.43
2018-11-07T10:39:13.704Z,7.13
2018-11-07T10:41:25.977Z,5.33
2018-11-07T10:43:38.204Z,3.43
2018-11-07T10:45:50.441Z,3.57
2018-11-07T10:48:02.683Z,4.30
2018-11-07T10:50:15.855Z,4.33
2018-11-07T10:52:30.872Z,2.87
2018-11-07T10:54:43.152Z,4.40
2018-11-07T10:56:55.374Z,3.47
2018-11-07T10:59:07.566Z,2.07
2018-11-07T11:01:25.636Z,2.90
2018-11-07T11:03:37.886Z,3.73
2018-11-07T11:05:50.064Z,3.23
2018-11-07T11:08:02.297Z,4.07
2018-11-07T11:10:18.550Z,4.47
2018-11-07T11:12:30.867Z,2.83
2018-11-07T11:14:43.220Z,3.80
2018-11-07T11:16:55.487Z,3.43
2018-11-07T11:19:07.736Z,3.07
2018-11-07T11:21:20.839Z,3.77
2018-11-07T11:23:33.075Z,3.20
2018-11-07T11:25:46.257Z,2.30
2018-11-07T11:27:58.471Z,1.83
2018-11-07T11:30:10.678Z,2.50
2018-11-07T11:32:22.936Z,2.40
2018-11-07T11:34:35.323Z,1.77
2018-11-07T11:36:47.405Z,2.70
2018-11-07T11:39:01.404Z,2.70
2018-11-07T11:41:13.729Z,3.57
2018-11-07T11:43:25.868Z,2.90
2018-11-07T11:45:38.104Z,1.60
2018-11-07T11:47:50.337Z,2.87
2018-11-07T11:50:02.946Z,1.50
2018-11-07T11:52:15.184Z,1.47
2018-11-07T11:54:27.419Z,1.70
2018-11-07T11:56:39.615Z,2.27
2018-11-07T11:58:51.963Z,1.63
2018-11-07T12:01:04.160Z,1.97
2018-11-07T12:03:19.194Z,1.80
2018-11-07T12:05:31.432Z,1.20
2018-11-07T12:07:43.695Z,1.93
2018-11-07T12:09:55.928Z,2.33
2018-11-07T12:12:09.030Z,1.43
2018-11-07T12:14:21.209Z,1.63
2018-11-07T12:16:33.542Z,1.60
2018-11-07T12:18:45.855Z,2.53
2018-11-07T12:20:58.132Z,2.70
2018-11-07T12:23:12.333Z,3.90
2018-11-07T12:25:24.755Z,2.53
2018-11-07T12:27:37.170Z,1.47
2018-11-07T12:29:49.459Z,2.70
2018-11-07T12:32:01.719Z,1.90
2018-11-07T12:34:13.943Z,1.67
2018-11-07T12:36:26.301Z,3.57
2018-11-07T12:38:43.480Z,3.83
2018-11-07T12:40:57.577Z,2.07
2018-11-07T12:43:09.806Z,2.10
2018-11-07T12:45:22.925Z,2.47
2018-11-07T12:47:36.528Z,1.37
2018-11-07T12:49:48.817Z,1.23
2018-11-07T12:52:01.031Z,3.73
2018-11-07T12:54:14.299Z,1.83
2018-11-07T12:56:26.600Z,1.77
2018-11-07T12:58:38.829Z,1.93
2018-11-07T13:00:51.092Z,2.50
2018-11-07T13:03:04.399Z,2.70
2018-11-07T13:05:17.674Z,2.47
2018-11-07T13:07:29.939Z,2.63
2018-11-07T13:09:42.203Z,2.20
2018-11-07T13:11:54.399Z,2.10
2018-11-07T13:14:06.687Z,2.40
2018-11-07T13:16:18.941Z,1.73
2018-11-07T13:18:31.175Z,2.90
2018-11-07T13:20:49.957Z,1.57
2018-11-07T13:23:03.092Z,2.50
2018-11-07T13:25:15.859Z,2.43
2018-11-07T13:27:28.221Z,3.53
2018-11-07T13:29:40.495Z,1.93
2018-11-07T13:31:52.710Z,2.37
2018-11-07T13:34:05.075Z,1.73
2018-11-07T13:36:17.305Z,1.80
2018-11-07T13:38:30.650Z,2.20
2018-11-07T13:40:42.619Z,2.77
2018-11-07T13:42:54.885Z,2.57
2018-11-07T13:45:09.154Z,2.83
2018-11-07T13:47:21.354Z,2.33
2018-11-07T13:49:33.555Z,2.47
2018-11-07T13:51:46.711Z,1.80
2018-11-07T13:53:59.985Z,2.53
2018-11-07T13:56:12.263Z,3.40
2018-11-07T13:58:24.511Z,3.17
2018-11-07T14:00:36.799Z,3.07
2018-11-07T14:02:49.709Z,3.40
2018-11-07T14:05:02.784Z,2.10
2018-11-07T14:07:16.049Z,2.03
2018-11-07T14:09:28.309Z,2.10
2018-11-07T14:11:40.612Z,2.97
2018-11-07T14:13:53.150Z,1.60
2018-11-07T14:16:05.544Z,2.00
2018-11-07T14:18:19.562Z,2.73
2018-11-07T14:20:31.800Z,2.60
2018-11-07T14:22:44.065Z,2.03
2018-11-07T14:24:59.163Z,2.83
2018-11-07T14:27:11.460Z,2.10
2018-11-07T14:29:23.734Z,2.23
2018-11-07T14:31:36.028Z,4.00
2018-11-07T14:33:48.322Z,2.67
2018-11-07T14:36:00.526Z,1.40
2018-11-07T14:38:12.789Z,1.70
2018-11-07T14:40:25.910Z,1.73
2018-11-07T14:42:38.467Z,2.53
2018-11-07T14:44:50.715Z,2.77
2018-11-07T14:47:02.955Z,2.10
2018-11-07T14:49:15.205Z,3.07
2018-11-07T14:51:27.547Z,2.07
2018-11-07T14:53:39.906Z,1.80
2018-11-07T14:55:52.023Z,2.30
2018-11-07T14:58:04.300Z,2.50
2018-11-07T15:00:17.097Z,2.13
2018-11-07T15:02:29.383Z,4.70
2018-11-07T15:04:41.608Z,3.37
2018-11-07T15:06:53.828Z,3.70
2018-11-07T15:09:07.906Z,2.83
2018-11-07T15:11:20.226Z,4.07
2018-11-07T15:13:32.431Z,2.33
2018-11-07T15:15:44.651Z,2.93
2018-11-07T15:17:56.892Z,1.90
2018-11-07T15:20:10.319Z,1.83
2018-11-07T15:22:22.575Z,2.97
2018-11-07T15:24:35.887Z,1.50
2018-11-07T15:26:48.119Z,2.80
2018-11-07T15:29:00.405Z,5.07
2018-11-07T15:31:12.661Z,3.20
2018-11-07T15:33:25.011Z,2.87
2018-11-07T15:35:37.306Z,3.23
2018-11-07T15:37:49.593Z,3.73
2018-11-07T15:40:01.926Z,4.67
2018-11-07T15:42:14.217Z,5.13
2018-11-07T15:44:26.505Z,4.20
2018-11-07T15:46:38.993Z,3.73
2018-11-07T15:48:51.259Z,4.83
2018-11-07T15:51:09.114Z,5.50
2018-11-07T15:53:21.442Z,5.67
2018-11-07T15:55:33.713Z,3.47
2018-11-07T15:57:45.947Z,5.27
2018-11-07T15:59:58.286Z,9.97
2018-11-07T16:02:10.526Z,6.87
2018-11-07T16:04:22.804Z,8.20
2018-11-07T16:06:35.067Z,8.60
2018-11-07T16:08:47.335Z,6.77
2018-11-07T16:10:59.558Z,5.47
2018-11-07T16:13:11.891Z,4.50
2018-11-07T16:15:24.137Z,5.50
2018-11-07T16:17:36.333Z,5.30
2018-11-07T16:19:48.554Z,5.53
2018-11-07T16:22:00.785Z,6.27
2018-11-07T16:24:13.058Z,5.27
2018-11-07T16:26:25.307Z,6.67
2018-11-07T16:28:37.641Z,5.93
2018-11-07T16:30:49.818Z,7.50
2018-11-07T16:33:02.095Z,5.00
2018-11-07T16:35:14.823Z,3.63
2018-11-07T16:37:27.044Z,6.70
2018-11-07T16:39:39.313Z,4.83
2018-11-07T16:41:51.718Z,5.03
2018-11-07T16:44:03.905Z,4.97
2018-11-07T16:46:16.160Z,5.00
2018-11-07T16:48:28.522Z,4.90
2018-11-07T16:50:40.720Z,4.30
2018-11-07T16:52:52.999Z,4.37
2018-11-07T16:55:05.358Z,5.80
2018-11-07T16:57:17.643Z,5.27
2018-11-07T16:59:29.898Z,6.07
2018-11-07T17:01:42.178Z,6.07
2018-11-07T17:03:54.405Z,5.40
2018-11-07T17:06:06.666Z,7.20
2018-11-07T17:08:18.882Z,7.43
2018-11-07T17:10:31.075Z,5.83
2018-11-07T17:12:43.425Z,5.53
2018-11-07T17:14:55.716Z,5.27
2018-11-07T17:17:07.970Z,4.93
2018-11-07T17:19:20.187Z,5.57
2018-11-07T17:21:32.468Z,6.90
2018-11-07T17:23:45.377Z,6.10
2018-11-07T17:25:57.632Z,6.07
2018-11-07T17:28:09.871Z,8.03
2018-11-07T17:30:22.127Z,9.50
2018-11-07T17:32:34.352Z,8.87
2018-11-07T17:34:46.810Z,6.67
2018-11-07T17:36:59.068Z,5.53
2018-11-07T17:39:11.303Z,7.00
2018-11-07T17:41:23.557Z,7.27
2018-11-07T17:43:35.822Z,6.53
2018-11-07T17:45:48.078Z,6.87
2018-11-07T17:48:00.491Z,10.20
2018-11-07T17:50:13.981Z,8.73
2018-11-07T17:52:26.250Z,6.23
2018-11-07T17:54:38.463Z,7.60
2018-11-07T17:56:50.776Z,11.63
2018-11-07T17:59:03.102Z,7.87
2018-11-07T18:01:15.364Z,8.83
2018-11-07T18:03:27.706Z,7.57
2018-11-07T18:05:39.987Z,8.63
2018-11-07T18:07:52.259Z,6.30
2018-11-07T18:10:06.820Z,8.60
2018-11-07T18:12:19.043Z,6.87
2018-11-07T18:14:31.327Z,7.90
2018-11-07T18:16:43.583Z,5.90
2018-11-07T18:18:55.874Z,6.57
2018-11-07T18:21:08.062Z,10.53
2018-11-07T18:23:20.353Z,10.27
2018-11-07T18:25:32.582Z,9.07
2018-11-07T18:27:44.893Z,7.50
2018-11-07T18:29:57.207Z,7.23
2018-11-07T18:32:09.523Z,5.40
2018-11-07T18:34:21.742Z,6.13
2018-11-07T18:36:33.989Z,7.00
2018-11-07T18:38:46.272Z,8.33
2018-11-07T18:40:58.643Z,7.70
2018-11-07T18:43:10.959Z,5.03
2018-11-07T18:45:23.162Z,7.90
2018-11-07T18:47:35.484Z,6.30
2018-11-07T18:49:47.744Z,8.53
2018-11-07T18:52:00.056Z,6.83
2018-11-07T18:54:12.271Z,6.80
2018-11-07T18:56:24.535Z,7.50
2018-11-07T18:58:36.957Z,7.37
2018-11-07T19:00:49.139Z,8.83
2018-11-07T19:03:01.385Z,6.63
2018-11-07T19:05:13.682Z,6.83
2018-11-07T19:07:25.972Z,6.90
2018-11-07T19:09:38.238Z,7.80
2018-11-07T19:11:50.535Z,5.80
2018-11-07T19:14:02.843Z,9.23
2018-11-07T19:16:15.067Z,7.20
2018-11-07T19:18:27.321Z,8.03
2018-11-07T19:20:39.590Z,8.87
2018-11-07T19:22:51.902Z,7.43
2018-11-07T19:25:05.503Z,6.63
2018-11-07T19:27:17.873Z,6.63
2018-11-07T19:29:30.046Z,8.20
2018-11-07T19:31:42.343Z,8.80
2018-11-07T19:33:54.656Z,7.30
2018-11-07T19:36:06.863Z,6.63
2018-11-07T19:38:19.210Z,8.43
2018-11-07T19:40:31.522Z,6.73
2018-11-07T19:42:43.738Z,7.17
2018-11-07T19:44:56.008Z,6.87
2018-11-07T19:47:08.315Z,6.83
2018-11-07T19:49:20.586Z,9.70
2018-11-07T19:51:33.043Z,7.67
2018-11-07T19:53:45.346Z,5.80
2018-11-07T19:55:57.571Z,6.90
2018-11-07T19:58:09.891Z,7.50
2018-11-07T20:00:22.111Z,8.10
2018-11-07T20:02:34.390Z,6.70
2018-11-07T20:04:46.691Z,7.43
2018-11-07T20:06:58.951Z,7.20
2018-11-07T20:09:11.195Z,8.73
2018-11-07T20:11:23.485Z,8.10
2018-11-07T20:13:35.737Z,5.70
2018-11-07T20:15:48.001Z,6.87
2018-11-07T20:18:00.248Z,7.47
2018-11-07T20:20:12.998Z,7.07
2018-11-07T20:22:25.208Z,7.57
2018-11-07T20:24:37.448Z,8.63
2018-11-07T20:26:49.707Z,7.70
2018-11-07T20:29:02.017Z,8.63
2018-11-07T20:31:14.329Z,8.33
2018-11-07T20:33:27.258Z,10.37
2018-11-07T20:35:39.615Z,7.60
2018-11-07T20:37:51.819Z,9.07
2018-11-07T20:40:05.391Z,8.87
2018-11-07T20:42:17.696Z,10.27
2018-11-07T20:44:29.986Z,8.73
2018-11-07T20:46:42.313Z,8.47
2018-11-07T20:48:54.587Z,9.53
2018-11-07T20:51:06.876Z,8.03
2018-11-07T20:53:19.295Z,8.10
2018-11-07T20:55:31.556Z,5.93
2018-11-07T20:57:43.836Z,7.00
2018-11-07T20:59:56.147Z,6.57
2018-11-07T21:02:08.455Z,7.10
2018-11-07T21:04:20.715Z,5.67
2018-11-07T21:06:32.939Z,5.30
2018-11-07T21:08:45.189Z,12.10
2018-11-07T21:10:57.434Z,8.43
2018-11-07T21:13:09.691Z,9.07
2018-11-07T21:15:22.001Z,8.80
2018-11-07T21:17:34.328Z,6.67
2018-11-07T21:19:46.624Z,10.70
2018-11-07T21:21:58.885Z,5.90
2018-11-07T21:24:11.120Z,9.97
2018-11-07T21:26:23.431Z,9.20
2018-11-07T21:28:35.661Z,8.43
2018-11-07T21:30:48.008Z,8.03
2018-11-07T21:33:00.272Z,8.33
2018-11-07T21:35:13.339Z,8.67
2018-11-07T21:37:25.651Z,7.37
2018-11-07T21:39:37.927Z,9.23
2018-11-07T21:41:50.161Z,8.37
2018-11-07T21:44:02.545Z,9.87
2018-11-07T21:46:14.755Z,8.53
2018-11-07T21:48:26.974Z,8.07
2018-11-07T21:50:39.280Z,7.57
2018-11-07T21:52:51.586Z,8.30
2018-11-07T21:55:04.530Z,9.80
2018-11-07T21:57:16.791Z,10.73
2018-11-07T21:59:29.029Z,11.70
2018-11-07T22:01:41.273Z,7.23
2018-11-07T22:03:53.503Z,7.43
2018-11-07T22:06:05.750Z,8.57
2018-11-07T22:08:18.009Z,8.43
2018-11-07T22:10:30.246Z,7.47
2018-11-07T22:12:42.481Z,9.40
2018-11-07T22:14:54.787Z,9.10
2018-11-07T22:17:07.168Z,7.20
2018-11-07T22:19:19.407Z,7.23
2018-11-07T22:21:31.654Z,8.53
2018-11-07T22:23:43.894Z,7.33
2018-11-07T22:25:56.104Z,11.17
2018-11-07T22:28:08.363Z,8.90
2018-11-07T22:30:20.612Z,8.83
2018-11-07T22:32:32.834Z,8.97
2018-11-07T22:34:45.142Z,9.67
2018-11-07T22:36:57.421Z,7.50
2018-11-07T22:39:11.876Z,8.40
2018-11-07T22:41:24.222Z,9.13
2018-11-07T22:43:36.436Z,8.50
2018-11-07T22:45:48.659Z,6.40
2018-11-07T22:48:00.869Z,11.33
2018-11-07T22:50:14.098Z,8.43
2018-11-07T22:52:26.402Z,7.43
2018-11-07T22:54:38.592Z,7.23
2018-11-07T22:56:50.871Z,5.90
2018-11-07T22:59:03.093Z,6.33
2018-11-07T23:01:22.108Z,4.93
2018-11-07T23:03:34.337Z,6.33
2018-11-07T23:05:46.574Z,5.63
2018-11-07T23:07:58.816Z,5.77
2018-11-07T23:10:11.016Z,6.77
2018-11-07T23:12:23.250Z,7.03
2018-11-07T23:14:35.476Z,5.83
2018-11-07T23:16:47.667Z,6.87
2018-11-07T23:18:59.955Z,4.53
2018-11-07T23:21:12.228Z,4.33
2018-11-07T23:23:24.467Z,3.23
2018-11-07T23:25:36.657Z,5.13
2018-11-07T23:27:48.964Z,4.30
2018-11-07T23:30:01.177Z,4.93
2018-11-07T23:32:13.402Z,4.90
2018-11-07T23:34:25.598Z,5.37
2018-11-07T23:36:37.803Z,6.57
2018-11-07T23:38:50.266Z,6.27
2018-11-07T23:41:02.451Z,4.80
2018-11-07T23:43:14.716Z,5.73
2018-11-07T23:45:26.914Z,5.07
2018-11-07T23:47:39.200Z,4.43
2018-11-07T23:49:51.387Z,5.93
2018-11-07T23:52:03.726Z,5.30
2018-11-07T23:54:16.984Z,4.33
2018-11-07T23:56:29.150Z,4.93
2018-11-07T23:58:41.391Z,5.40
